Terminal Aerodrome Forecast
Issued by NWS Mt. Holly, NJ

Home | Current Version | Previous Version | Text Only | Print | Product List | Glossary On
Versions: 1 2 3 4 5 6 7 8 9 10 11 12 13 14 15
692
FTUS41 KPHI 191127
TAFACY
TAF
KACY 191127Z 1912/2012 26005KT P6SM BKN120
     FM191300 30006KT P6SM BKN080
     FM191600 30008G16KT P6SM SCT150
     FM200000 35005KT P6SM SKC=

USA.gov is the U.S. government's official web portal to all federal, state and local government web resources and services.